Flight Track Log - Related Links

Times and Time Zones

All times are in EDT time to prevent confusion due to time zone crossing. See the WJA308 flight status page for this flight to view local times or setup timezone preferences in your user account.

Time Position Orientation Groundspeed Altitude Reporting Facility
EDT Latitude Longitude Course Direction KTS MPH feet Rate Location/Type
Wed 03:01:34 AM 56.6333 -111.2000 90° East 90 104 1,800  Level Edmonton Center
Wed 03:02:34 AM 56.6333 -111.1333 90° East 200 230 3,400 1,700 Climbing Edmonton Center
Wed 03:03:34 AM 56.6000 -111.0000 114° Southeast 250 288 5,200 2,100 Climbing Edmonton Center
Wed 03:04:34 AM 56.5833 -110.8833 104° East 290 334 7,600 2,650 Climbing Edmonton Center
Wed 03:05:00 AM 56.6604 -110.3316 84° East  Level FlightAware Approximate
Wed 03:05:34 AM 56.5500 -110.7167 110° East 300 345 10,500  Level Edmonton Center
Wed 03:06:00 AM 56.6669 -110.1085 90° East  Level FlightAware Approximate
Wed 03:06:34 AM 56.5167 -110.5667 112° Southeast 330 380 12,700  Level Edmonton Center
Wed 03:07:00 AM 56.6671 -109.8848 90° East  Level FlightAware Approximate
Wed 03:07:34 AM 56.4833 -110.3667 107° East 360 414 15,200  Level Edmonton Center
Wed 03:08:34 AM 56.4500 -110.1833 108° East 390 449 17,700 2,450 Climbing Edmonton Center
Wed 03:09:34 AM 56.4167 -109.9833 107° East 410 472 20,100 2,450 Climbing Edmonton Center
Wed 03:10:34 AM 56.3667 -109.7667 113° Southeast 430 495 22,600 2,250 Climbing Edmonton Center
Wed 03:11:34 AM 56.3333 -109.5833 108° East 440 506 24,600 1,900 Climbing Edmonton Center
Wed 03:12:34 AM 56.2833 -109.3333 110° East 460 529 26,400 1,800 Climbing Edmonton Center
Wed 03:13:34 AM 56.2333 -109.1167 112° Southeast 470 541 28,200 1,800 Climbing Edmonton Center
Wed 03:14:34 AM 56.2000 -108.9000 105° East 480 552 30,000 1,650 Climbing Edmonton Center
Wed 03:15:34 AM 56.1500 -108.6500 110° East 490 564 31,500 1,800 Climbing Edmonton Center
Wed 03:16:34 AM 56.1000 -108.4333 112° Southeast 480 552 33,600 1,850 Climbing Edmonton Center
Wed 03:17:34 AM 56.0500 -108.2167 112° Southeast 470 541 35,200 1,250 Climbing Edmonton Center
Wed 03:18:34 AM 56.0000 -108.0000 112° Southeast 470 541 36,100 900 Climbing Edmonton Center
Wed 03:19:34 AM 55.9500 -107.7833 112° Southeast 470 541 37,000 450 Climbing Edmonton Center
Wed 03:20:34 AM 55.9167 -107.5333 103° East 470 541 37,000  Level Edmonton Center
Wed 03:21:34 AM 55.8667 -107.3167 112° Southeast 470 541 37,000  Level Edmonton Center
Wed 03:22:34 AM 55.8167 -107.1000 112° Southeast 470 541 37,000  Level Edmonton Center
Wed 03:23:34 AM 55.7500 -106.8833 119° Southeast 470 541 37,000  Level Edmonton Center
Wed 03:24:34 AM 55.7000 -106.6833 114° Southeast 470 541 37,000  Level Edmonton Center
Wed 03:25:34 AM 55.6667 -106.4333 103° East 470 541 37,000  Level Edmonton Center
Wed 03:26:34 AM 55.6167 -106.2167 112° Southeast 470 541 37,000  Level Edmonton Center
Wed 03:27:34 AM 55.5667 -106.0167 114° Southeast 470 541 37,000  Level Edmonton Center
Wed 03:28:34 AM 55.5167 -105.8000 112° Southeast 470 541 37,000  Level Edmonton Center
Wed 03:29:34 AM 55.4667 -105.5833 112° Southeast 470 541 37,000  Level Edmonton Center
Wed 03:30:34 AM 55.4167 -105.3833 114° Southeast 470 541 37,000  Level Edmonton Center
Wed 03:31:34 AM 55.3667 -105.1667 112° Southeast 470 541 37,000  Level Edmonton Center
Wed 03:32:34 AM 55.3000 -104.9333 117° Southeast 470 541 37,000  Level Edmonton Center
Wed 03:33:34 AM 55.2500 -104.7167 112° Southeast 470 541 37,000  Level Edmonton Center
Wed 03:34:34 AM 55.2000 -104.5167 114° Southeast 470 541 37,000  Level Edmonton Center
Wed 03:35:34 AM 55.1333 -104.3167 120° Southeast 470 541 37,000  Level Edmonton Center
Wed 03:36:34 AM 55.0833 -104.1000 112° Southeast 470 541 37,000  Level Edmonton Center
Wed 03:37:34 AM 55.0333 -103.9000 113° Southeast 460 529 37,000  Level Edmonton Center
Wed 03:38:34 AM 54.9833 -103.6667 110° East 460 529 37,000  Level Edmonton Center
Wed 03:39:34 AM 54.9333 -103.4667 113° Southeast 460 529 37,000  Level Edmonton Center
Wed 03:40:34 AM 54.8833 -103.2500 112° Southeast 460 529 37,000  Level Edmonton Center
Wed 03:41:34 AM 54.8167 -103.0833 125° Southeast 460 529 37,000  Level Edmonton Center
Wed 03:42:34 AM 54.7667 -102.8833 113° Southeast 460 529 37,000  Level Edmonton Center
Wed 03:43:34 AM 54.7167 -102.6500 110° East 460 529 37,000  Level Edmonton Center
Wed 03:44:34 AM 54.6500 -102.4500 120° Southeast 460 529 37,000  Level Edmonton Center
Wed 03:45:34 AM 54.6000 -102.2500 113° Southeast 460 529 37,000  Level Edmonton Center
Wed 03:46:34 AM 54.5500 -102.0500 113° Southeast 460 529 37,000  Level Edmonton Center
Wed 03:47:34 AM 54.4833 -101.8500 120° Southeast 460 529 37,000  Level Edmonton Center
Wed 03:48:34 AM 54.4333 -101.6500 113° Southeast 460 529 37,000  Level Edmonton Center
Wed 03:49:34 AM 54.3667 -101.4500 120° Southeast 460 529 37,000  Level Edmonton Center
Wed 03:50:34 AM 54.3000 -101.2500 120° Southeast 460 529 37,000  Level Edmonton Center
Wed 03:51:43 AM 54.2667 -101.0667 107° East 460 529 37,000  Level Winnipeg Center
Wed 03:52:43 AM 54.2000 -100.8500 118° Southeast 460 529 37,000  Level Winnipeg Center
Wed 03:53:43 AM 54.1333 -100.6833 124° Southeast 460 529 37,000  Level Winnipeg Center
Wed 03:54:43 AM 54.0833 -100.4667 111° Southeast 450 518 37,000  Level Winnipeg Center
Wed 03:56:34 AM 53.9500 -100.0667 119° Southeast 450 518 37,000  Level Edmonton Center
Wed 03:57:34 AM 53.9000 -99.8833 115° Southeast 450 518 37,000  Level Edmonton Center
Wed 03:58:34 AM 53.8333 -99.6833 119° Southeast 460 529 37,000  Level Edmonton Center
Wed 03:59:34 AM 53.7833 -99.4833 113° Southeast 450 518 37,000  Level Edmonton Center
Wed 04:00:34 AM 53.7167 -99.3000 122° Southeast 450 518 37,000  Level Edmonton Center
Wed 04:01:34 AM 53.6500 -99.1333 124° Southeast 450 518 37,000  Level Edmonton Center
Wed 04:02:34 AM 53.6167 -98.9333 106° East 450 518 37,000  Level Edmonton Center
Wed 04:03:34 AM 53.5333 -98.7500 127° Southeast 450 518 37,000  Level Edmonton Center
Wed 04:04:34 AM 53.4833 -98.5667 115° Southeast 450 518 37,000  Level Edmonton Center
Wed 04:05:34 AM 53.4167 -98.3667 119° Southeast 450 518 37,000  Level Edmonton Center
Wed 04:06:34 AM 53.3667 -98.1833 115° Southeast 460 529 37,000  Level Edmonton Center
Wed 04:07:34 AM 53.2833 -98.0000 127° Southeast 460 529 37,000  Level Edmonton Center
Wed 04:08:34 AM 53.2333 -97.8000 113° Southeast 450 518 37,000  Level Edmonton Center
Wed 04:09:34 AM 53.1833 -97.6167 114° Southeast 450 518 37,000  Level Edmonton Center
Wed 04:10:34 AM 53.1167 -97.4500 124° Southeast 440 506 37,000  Level Edmonton Center
Wed 04:11:34 AM 53.0500 -97.2667 121° Southeast 460 529 37,000  Level Edmonton Center
Wed 04:12:34 AM 52.9833 -97.0833 121° Southeast 450 518 37,000  Level Edmonton Center
Wed 04:13:34 AM 52.9333 -96.9000 114° Southeast 450 518 37,000  Level Edmonton Center
Wed 04:14:34 AM 52.8667 -96.7167 121° Southeast 450 518 37,000  Level Edmonton Center
Wed 04:15:34 AM 52.8000 -96.5333 121° Southeast 450 518 37,000  Level Edmonton Center
Wed 04:16:34 AM 52.7333 -96.3500 121° Southeast 450 518 37,000  Level Edmonton Center
Wed 04:17:34 AM 52.6667 -96.1667 121° Southeast 450 518 37,000  Level Edmonton Center
Wed 04:18:34 AM 52.6000 -95.9833 121° Southeast 450 518 37,000  Level Edmonton Center
Wed 04:19:34 AM 52.5333 -95.8000 121° Southeast 460 529 37,000  Level Edmonton Center
Wed 04:20:34 AM 52.4667 -95.6167 121° Southeast 440 506 37,000  Level Edmonton Center
Wed 04:21:34 AM 52.4000 -95.4667 126° Southeast 450 518 37,000  Level Edmonton Center
Wed 04:22:34 AM 52.3333 -95.2667 119° Southeast 450 518 37,000  Level Edmonton Center
Wed 04:23:34 AM 52.2667 -95.1167 126° Southeast 460 529 37,000  Level Edmonton Center
Wed 04:24:34 AM 52.2167 -94.9333 114° Southeast 450 518 37,000  Level Edmonton Center
Wed 04:25:34 AM 52.1333 -94.7500 126° Southeast 460 529 37,000  Level Edmonton Center
Wed 04:26:34 AM 52.0667 -94.5833 123° Southeast 460 529 37,000  Level Edmonton Center
Wed 04:27:34 AM 52.0000 -94.4000 121° Southeast 450 518 37,000  Level Edmonton Center
Wed 04:28:34 AM 51.9333 -94.2167 120° Southeast 450 518 37,000  Level Edmonton Center
Wed 04:29:34 AM 51.8667 -94.0500 123° Southeast 460 529 37,000  Level Edmonton Center
Wed 04:30:34 AM 51.8000 -93.8667 120° Southeast 470 541 37,000  Level Edmonton Center
Wed 04:31:34 AM 51.7333 -93.7000 123° Southeast 460 529 37,000  Level Edmonton Center
Wed 04:32:34 AM 51.6667 -93.5167 120° Southeast 460 529 37,000  Level Edmonton Center
Wed 04:33:34 AM 51.5833 -93.3500 129° Southeast 450 518 37,000  Level Edmonton Center
Wed 04:34:34 AM 51.5167 -93.1833 123° Southeast 450 518 37,000  Level Edmonton Center
Wed 04:35:34 AM 51.4500 -93.0000 120° Southeast 450 518 37,000  Level Edmonton Center
Wed 04:36:34 AM 51.3833 -92.8333 123° Southeast 450 518 37,000  Level Edmonton Center
Wed 04:37:34 AM 51.3333 -92.6500 114° Southeast 450 518 37,000  Level Edmonton Center
Wed 04:38:34 AM 51.2500 -92.4833 129° Southeast 450 518 37,000  Level Edmonton Center
Wed 04:39:34 AM 51.1833 -92.3333 125° Southeast 450 518 37,000  Level Edmonton Center
Wed 04:40:34 AM 51.1167 -92.1667 122° Southeast 450 518 37,000  Level Edmonton Center
Wed 04:41:34 AM 51.0500 -92.0000 122° Southeast 450 518 37,000  Level Edmonton Center
Wed 04:42:34 AM 50.9667 -91.8333 128° Southeast 450 518 37,000  Level Edmonton Center
Wed 04:43:34 AM 50.9000 -91.6667 122° Southeast 450 518 37,000  Level Edmonton Center
Wed 04:44:34 AM 50.8333 -91.5000 122° Southeast 470 541 37,000  Level Edmonton Center
Wed 04:45:34 AM 50.7500 -91.3333 128° Southeast 460 529 37,000  Level Edmonton Center
Wed 04:46:34 AM 50.6833 -91.1667 122° Southeast 460 529 37,000  Level Edmonton Center
Wed 04:47:34 AM 50.6167 -91.0000 122° Southeast 460 529 37,000  Level Edmonton Center
Wed 04:48:34 AM 50.5333 -90.8333 128° Southeast 450 518 37,000  Level Edmonton Center
Wed 04:49:34 AM 50.4667 -90.6667 122° Southeast 450 518 37,000  Level Edmonton Center
Wed 04:50:34 AM 50.4000 -90.5000 122° Southeast 450 518 37,000  Level Edmonton Center
Wed 04:51:34 AM 50.3167 -90.3667 134° Southeast 450 518 37,000  Level Edmonton Center
Wed 04:52:34 AM 50.2500 -90.1833 120° Southeast 450 518 37,000  Level Edmonton Center
Wed 04:53:34 AM 50.1833 -90.0333 125° Southeast 450 518 37,000  Level Edmonton Center
Wed 04:54:43 AM 50.1167 -89.8833 125° Southeast 450 518 37,000  Level Winnipeg Center
Wed 04:55:43 AM 50.0333 -89.7167 128° Southeast 450 518 37,000  Level Winnipeg Center
Wed 04:56:43 AM 49.9667 -89.5667 125° Southeast 450 518 37,000  Level Winnipeg Center
Wed 04:57:43 AM 49.9000 -89.4000 122° Southeast 450 518 37,000  Level Winnipeg Center
Wed 04:58:43 AM 49.8167 -89.2500 131° Southeast 450 518 37,000  Level Winnipeg Center
Wed 04:59:43 AM 49.7500 -89.0833 122° Southeast 450 518 37,000  Level Winnipeg Center
Wed 05:00:43 AM 49.6833 -88.9167 122° Southeast 450 518 37,000  Level Winnipeg Center
Wed 05:01:43 AM 49.6000 -88.7667 131° Southeast 460 529 37,000  Level Winnipeg Center
Wed 05:02:43 AM 49.5167 -88.6000 128° Southeast 460 529 37,000  Level Winnipeg Center
Wed 05:03:43 AM 49.4333 -88.4667 134° Southeast 460 529 37,000  Level Winnipeg Center
Wed 05:04:43 AM 49.3833 -88.3000 115° Southeast 460 529 37,000  Level Winnipeg Center
Wed 05:05:43 AM 49.3000 -88.1500 130° Southeast 460 529 37,000  Level Winnipeg Center
Wed 05:06:43 AM 49.2167 -87.9833 127° Southeast 450 518 37,000  Level Winnipeg Center
Wed 05:07:43 AM 49.1500 -87.8500 127° Southeast 450 518 37,000  Level Winnipeg Center
Wed 05:08:43 AM 49.0833 -87.6833 121° Southeast 450 518 37,000  Level Winnipeg Center
Wed 05:09:43 AM 49.0000 -87.5500 134° Southeast 450 518 37,000  Level Winnipeg Center
Wed 05:10:43 AM 48.9167 -87.3833 127° Southeast 450 518 37,000  Level Winnipeg Center
Wed 05:11:43 AM 48.8500 -87.2333 124° Southeast 450 518 37,000  Level Winnipeg Center
Wed 05:12:43 AM 48.7667 -87.0833 130° Southeast 450 518 37,000  Level Winnipeg Center
Wed 05:13:43 AM 48.7000 -86.9500 127° Southeast 450 518 37,000  Level Winnipeg Center
Wed 05:14:43 AM 48.6167 -86.7833 127° Southeast 440 506 37,000  Level Winnipeg Center
Wed 05:15:43 AM 48.5500 -86.6500 127° Southeast 450 518 37,000  Level Winnipeg Center
Wed 05:16:43 AM 48.4667 -86.4833 127° Southeast 440 506 37,000  Level Winnipeg Center
Wed 05:17:43 AM 48.3833 -86.3500 133° Southeast 440 506 37,000  Level Winnipeg Center
Wed 05:18:43 AM 48.3167 -86.2167 127° Southeast 440 506 37,000  Level Winnipeg Center
Wed 05:19:43 AM 48.2333 -86.0500 127° Southeast 450 518 37,000  Level Winnipeg Center
Wed 05:20:43 AM 48.1500 -85.9167 133° Southeast 440 506 37,000  Level Winnipeg Center
Wed 05:21:43 AM 48.0667 -85.7833 133° Southeast 440 506 37,000  Level Winnipeg Center
Wed 05:22:43 AM 47.9833 -85.6500 133° Southeast 450 518 37,000  Level Winnipeg Center
Wed 05:23:43 AM 47.9000 -85.5000 130° Southeast 440 506 37,000  Level Winnipeg Center
Wed 05:24:43 AM 47.8167 -85.3833 137° Southeast 440 506 37,000  Level Winnipeg Center
Wed 05:25:43 AM 47.7333 -85.2667 137° Southeast 440 506 37,000  Level Winnipeg Center
Wed 05:26:43 AM 47.6500 -85.1000 127° Southeast 440 506 37,000  Level Winnipeg Center
Wed 05:27:43 AM 47.5667 -84.9667 133° Southeast 440 506 37,000  Level Winnipeg Center
Wed 05:28:43 AM 47.4833 -84.8500 137° Southeast 440 506 37,000  Level Winnipeg Center
Wed 05:29:43 AM 47.4000 -84.7167 133° Southeast 440 506 37,000  Level Winnipeg Center
Wed 05:30:43 AM 47.3000 -84.5667 134° Southeast 450 518 37,000  Level Winnipeg Center
Wed 05:31:43 AM 47.2167 -84.4667 141° Southeast 450 518 37,000  Level Winnipeg Center
Wed 05:32:43 AM 47.1500 -84.3333 126° Southeast 450 518 37,000  Level Winnipeg Center
Wed 05:33:43 AM 47.0500 -84.1833 134° Southeast 450 518 37,000  Level Winnipeg Center
Wed 05:34:43 AM 46.9667 -84.0500 132° Southeast 450 518 37,000  Level Winnipeg Center
Wed 05:36:02 AM 46.8667 -83.9167 138° Southeast 440 506 37,000  Level Toronto Center
Wed 05:37:02 AM 46.7833 -83.8000 136° Southeast 440 506 37,000  Level Toronto Center
Wed 05:38:02 AM 46.7167 -83.6667 126° Southeast 440 506 37,000  Level Toronto Center
Wed 05:39:02 AM 46.6167 -83.5333 137° Southeast 440 506 37,000  Level Toronto Center
Wed 05:40:02 AM 46.5333 -83.4167 136° Southeast 450 518 37,000  Level Toronto Center
Wed 05:41:02 AM 46.4500 -83.2833 132° Southeast 450 518 37,000  Level Toronto Center
Wed 05:42:02 AM 46.3667 -83.1667 136° Southeast 450 518 37,000  Level Toronto Center
Wed 05:43:02 AM 46.2833 -83.0333 132° Southeast 450 518 37,000  Level Toronto Center
Wed 05:44:02 AM 46.1833 -82.9000 137° Southeast 440 506 37,000  Level Toronto Center
Wed 05:45:02 AM 46.1000 -82.7833 136° Southeast 440 506 37,000  Level Toronto Center
Wed 05:46:02 AM 46.0167 -82.6333 129° Southeast 440 506 37,000  Level Toronto Center
Wed 05:47:02 AM 45.9333 -82.5333 140° Southeast 440 506 37,000  Level Toronto Center
Wed 05:48:02 AM 45.8500 -82.4167 136° Southeast 440 506 37,000  Level Toronto Center
Wed 05:49:02 AM 45.7500 -82.2833 137° Southeast 440 506 37,000  Level Toronto Center
Wed 05:50:02 AM 45.6667 -82.1667 136° Southeast 440 506 37,000  Level Toronto Center
Wed 05:51:02 AM 45.5833 -82.0333 132° Southeast 440 506 37,000  Level Toronto Center
Wed 05:52:02 AM 45.5000 -81.9000 132° Southeast 440 506 37,000  Level Toronto Center
Wed 05:53:02 AM 45.4167 -81.8000 140° Southeast 440 506 37,000  Level Toronto Center
Wed 05:54:02 AM 45.3167 -81.6500 133° Southeast 450 518 37,000  Level Toronto Center
Wed 05:55:02 AM 45.2333 -81.5333 135° Southeast 450 518 37,000  Level Toronto Center
Wed 05:56:02 AM 45.1333 -81.4000 137° Southeast 450 518 37,000  Level Toronto Center
Wed 05:57:02 AM 45.0500 -81.2833 135° Southeast 460 529 37,000 -750 Level Toronto Center
Wed 05:58:02 AM 44.9500 -81.1667 140° Southeast 450 518 35,500 -1,850 Descending Toronto Center
Wed 05:59:02 AM 44.8667 -81.0500 135° Southeast 450 518 33,300 -2,200 Descending Toronto Center
Wed 06:00:02 AM 44.7833 -80.9167 131° Southeast 430 495 31,100 -2,050 Descending Toronto Center
Wed 06:01:02 AM 44.7167 -80.8000 129° Southeast 420 483 29,200 -1,900 Descending Toronto Center
Wed 06:02:02 AM 44.6333 -80.7167 145° Southeast 400 460 27,300 -1,900 Descending Toronto Center
Wed 06:03:02 AM 44.5500 -80.6000 135° Southeast 380 437 25,400 -1,800 Descending Toronto Center
Wed 06:04:02 AM 44.4833 -80.5000 133° Southeast 370 426 23,700 -1,750 Descending Toronto Center
Wed 06:05:02 AM 44.4000 -80.4000 139° Southeast 360 414 21,900 -1,700 Descending Toronto Center
Wed 06:06:02 AM 44.3333 -80.3167 138° Southeast 350 403 20,300 -1,650 Descending Toronto Center
Wed 06:07:02 AM 44.2500 -80.2333 144° Southeast 330 380 18,600 -1,650 Descending Toronto Center
Wed 06:08:02 AM 44.1833 -80.1667 144° Southeast 320 368 17,000 -1,550 Descending Toronto Center
Wed 06:09:02 AM 44.1167 -80.1167 152° Southeast 310 357 15,500 -1,500 Descending Toronto Center
Wed 06:10:02 AM 44.0500 -80.0500 144° Southeast 300 345 14,000 -1,450 Descending Toronto Center
Wed 06:11:02 AM 43.9833 -79.9833 144° Southeast 290 334 12,600 -1,400 Descending Toronto Center
Wed 06:12:02 AM 43.9167 -79.9167 144° Southeast 280 322 11,200 -1,350 Descending Toronto Center
Wed 06:13:02 AM 43.8667 -79.8667 144° Southeast 270 311 9,900 -1,650 Descending Toronto Center
Wed 06:14:02 AM 43.7833 -79.8333 164° South 260 299 7,900 -1,450 Descending Toronto Center
Wed 06:15:02 AM 43.7167 -79.8333 180° South 260 299 7,000 -1,000 Descending Toronto Center
Wed 06:16:02 AM 43.6667 -79.8333 180° South 230 265 5,900 -1,350 Descending Toronto Center
Wed 06:17:02 AM 43.6000 -79.8333 180° South 210 242 4,300 -1,400 Descending Toronto Center
Wed 06:18:02 AM 43.5500 -79.8167 166° South 210 242 3,100 -850 Descending Toronto Center
Wed 06:19:02 AM 43.6000 -79.7500 44° Northeast 220 253 2,600 -750 Descending Toronto Center
Wed 06:20:02 AM 43.6333 -79.7000 47° Northeast 200 230 1,600 -900 Descending Toronto Center
Wed 06:21:02 AM 43.6667 -79.6500 47° Northeast 140 161 800 -800 Descending Toronto Center

Login

Don't have an account? Register now (free) for customized features, flight alerts, and more!